Relevés horaires Bierset (Belgique)


Relevés horaires à Bierset - Jeudi 05 Juill. 2018
Heure UTC1 Température [°C] Vent [km/h] Hum. [%] Pres.4 [hPa] Visi. [Km] Nébu. [octa] Préc.5 [mm] Cond.
2m. Res. Ros. Dir.2 Vit. Moy. Raf.3
23:00 16.6 16.6 11.9 NO 5.6 5.6 7.4 74 1017.7(1.8/3h) 25 2/8 -- --
22:00 17.6 17.6 11.0 NO 3.7 3.7 7.4 65 1017.1(1.9/3h) 25 2/8 -- --
21:00 18.8 18.8 9.6 NO 3.7 7.4 13.0 55 1016.5(1.8/3h) 25 2/8 -- --
20:00 20.4 20.4 10.3 NO 5.6 5.6 9.3 52 1015.6(1.3/3h) 25 2/8 -- --
19:00 22.9 22.9 10.8 NO 3.7 7.4 13.0 46 1014.8(0.6/3h) 25 2/8 -- --
18:00 24.4 24.4 11.6 NO 7.4 9.3 14.8 45 1014.2(0.2/3h) 25 5/8 0/12h
--
17:00 25.0 25.0 12.2 NNO 9.3 9.3 14.8 45 1014(0.1/3h) 20 6/8 -- --
16:00 25.0 25.0 12.2 N 7.4 9.3 14.8 45 1014(0.1/3h) 20 6/8 -- --
15:00 25.3 25.3 12.3 NNO 9.3 9.3 13.0 44 1013.9(-0.2/3h) 20 5/8 -- --
14:00 24.8 24.8 12.8 NO 3.7 7.4 13.0 47 1013.9(-0.2/3h) 20 5/8 -- --
13:00 24.8 24.8 12.9 NNO 7.4 7.4 13.0 48 1013.9(0.2/3h) 20 6/8 -- --
12:00 22.5 22.5 13.9 ONO 3.7 7.4 11.1 58 1014.3(0.2/3h) 20 7/8 0/6h
--
11:00 23.5 23.5 13.5 ONO 5.6 7.4 11.1 53 1014.2(0.2/3h) 20 7/8 -- --
10:00 22.1 22.1 13.9 NNO 3.7 5.6 9.3 60 1014.2(0.4/3h) 20 7/8 -- --
09:00 21.8 21.8 14.2 NO 3.7 5.6 7.4 62 1014.1(0.8/3h) 20 7/8 -- --
08:00 20.5 20.5 14.2 NNO 1.9 3.7 5.6 67 1014.3(0.8/3h) 20 7/8 -- --
07:00 19.0 19.0 14.6 NNO 1.9 5.6 7.4 76 1014.1(0.6/3h) 12 5/8 -- --
06:00 17.6 17.6 15.2 NNO 3.7 5.6 7.4 86 1013.6(0.2/3h) 10 7/8 trace/12h
--
05:00 16.2 16.2 15.2 OSO 1.9 3.7 5.6 94 1013.8(0.0/3h) 6 7/8 -- --
04:00 15.9 15.9 14.9 O 3.7 5.6 5.6 94 1013.7(0.0/3h) 11 7/8 -- --
03:00 17.9 17.9 15.6 O 3.7 5.6 7.4 86 1013.4(-0.6/3h) 12 7/8 -- --
02:00 18.5 18.5 15.8 O 3.7 5.6 7.4 84 1013.6(-0.5/3h) 14 7/8 -- --
01:00 17.8 17.8 15.7 OSO 3.7 3.7 5.6 88 1013.5(-0.8/3h) 30 6/8 -- --

1 Coordinated Universal Time. Actuellement il est 08:00 locale et 06:00 UTC.

2 Le vent souffle depuis la direction indiquée vers la direction oposée.

3 Les rafales max. sont disponible 40 min après l'heure du relevé.

4 Pour les stations d'altitude (plus de 600m) le géopotentiel du niveau le plus proche de la pression obligatoire est indiqué.

5 Les stations disposant d'un diffuseur peuvent indiquer "trace". Cela signifie que des précipitations ont touchés le sol mais que la quantité est inférieure à 0.1 mm.

Récapitulatif de la journée
Température [°C] Vent [km/h] Ensoleillement4 [h] Precipitations totale5 [mm] Pression [Hpa]
Min1 Max.2 Moy.3 Max. Min Max.
15.7 26.1 6.4 14.8 0 h 0 min 0 1013.4 1017.7

1 Température minimale relevée entre 18:00 UTC la veille et 18:00 UTC le jour donné.

2 Température maximale relevée entre 06:00 UTC le jour donné et 06:00 UTC le lendemain.

3 Vent moyen de la journée basé sur les relevés horaires.

4 Ensoleillement en heures relevé entre 06:00 UTC la veille et 06:00 UTC le jour donné.

5 Précipitations totales tombées entre 06:00 UTC la jour donné et 06:00 UTC le lendemain.

Graphiques horaires